createdAt,value
2023-03-02T00:00:16.192Z,52.83
2023-03-02T00:02:46.502Z,48.87
2023-03-02T00:05:15.535Z,48.37
2023-03-02T00:07:44.610Z,48.07
2023-03-02T00:10:13.549Z,47.43
2023-03-02T00:12:42.533Z,48.97
2023-03-02T00:15:11.926Z,46.80
2023-03-02T00:17:40.649Z,47.63
2023-03-02T00:20:12.598Z,46.10
2023-03-02T00:22:42.760Z,45.00
2023-03-02T00:25:12.676Z,47.00
2023-03-02T00:27:41.626Z,47.30
2023-03-02T00:30:12.789Z,48.37
2023-03-02T00:32:41.735Z,49.60
2023-03-02T00:35:12.095Z,48.47
2023-03-02T00:37:40.908Z,49.43
2023-03-02T00:40:11.428Z,47.57
2023-03-02T00:42:40.480Z,48.67
2023-03-02T00:45:10.515Z,51.83
2023-03-02T00:47:41.471Z,50.70
2023-03-02T00:50:12.635Z,47.53
2023-03-02T00:52:41.466Z,48.50
2023-03-02T00:55:10.856Z,49.60
2023-03-02T00:57:40.335Z,45.67
2023-03-02T01:00:10.596Z,47.83
2023-03-02T01:02:44.213Z,49.53
2023-03-02T01:05:18.443Z,50.37
2023-03-02T01:07:47.310Z,49.13
2023-03-02T01:10:16.396Z,52.83
2023-03-02T01:12:45.388Z,51.00
2023-03-02T01:15:14.348Z,54.77
2023-03-02T01:17:43.987Z,52.60
2023-03-02T01:20:14.085Z,52.23
2023-03-02T01:22:46.417Z,52.50
2023-03-02T01:25:15.263Z,53.17
2023-03-02T01:27:44.030Z,54.33
2023-03-02T01:30:14.062Z,54.07
2023-03-02T01:32:42.935Z,49.60
2023-03-02T01:35:11.977Z,50.30
2023-03-02T01:37:40.726Z,47.63
2023-03-02T01:40:13.979Z,48.83
2023-03-02T01:42:51.968Z,51.27
2023-03-02T01:45:51.779Z,49.83
2023-03-02T01:48:30.877Z,50.27
2023-03-02T01:51:01.350Z,52.17
2023-03-02T01:53:32.828Z,53.37
2023-03-02T01:56:05.963Z,54.67
2023-03-02T01:58:38.619Z,53.07
2023-03-02T02:01:15.623Z,55.17
2023-03-02T02:03:46.469Z,56.97
2023-03-02T02:06:20.885Z,55.27
2023-03-02T02:08:50.744Z,55.63
2023-03-02T02:11:21.012Z,54.70
2023-03-02T02:13:56.745Z,54.23
2023-03-02T02:16:26.240Z,51.57
2023-03-02T02:18:55.190Z,53.80
2023-03-02T02:21:26.775Z,53.40
2023-03-02T02:24:06.190Z,54.27
2023-03-02T02:26:42.546Z,52.97
2023-03-02T02:29:14.847Z,54.47
2023-03-02T02:31:49.502Z,55.00
2023-03-02T02:34:23.225Z,57.83
2023-03-02T02:36:57.577Z,57.63
2023-03-02T02:39:31.542Z,62.77
2023-03-02T02:42:06.144Z,61.53
2023-03-02T02:44:35.453Z,64.57
2023-03-02T02:47:04.582Z,70.27
2023-03-02T02:49:36.251Z,69.53
2023-03-02T02:52:07.684Z,66.57
2023-03-02T02:54:38.657Z,69.97
2023-03-02T02:57:12.353Z,71.33
2023-03-02T02:59:46.337Z,69.43
2023-03-02T03:02:20.538Z,67.67
2023-03-02T03:04:49.967Z,67.30
2023-03-02T03:07:22.239Z,68.27
2023-03-02T03:09:58.694Z,66.67
2023-03-02T03:12:33.218Z,65.77
2023-03-02T03:15:03.864Z,63.70
2023-03-02T03:17:32.962Z,58.90
2023-03-02T03:20:07.878Z,56.53
2023-03-02T03:22:40.087Z,53.47
2023-03-02T03:25:15.514Z,54.80
2023-03-02T03:27:48.532Z,54.03
2023-03-02T03:30:18.549Z,53.67
2023-03-02T03:32:48.372Z,52.10
2023-03-02T03:35:18.644Z,53.07
2023-03-02T03:37:48.502Z,52.10
2023-03-02T03:40:18.247Z,50.83
2023-03-02T03:42:49.823Z,53.73
2023-03-02T03:45:18.874Z,52.80
2023-03-02T03:47:47.599Z,52.00
2023-03-02T03:50:16.445Z,53.53
2023-03-02T03:52:46.082Z,53.77
2023-03-02T03:55:20.851Z,55.27
2023-03-02T03:57:52.541Z,51.57
2023-03-02T04:00:22.594Z,56.87
2023-03-02T04:02:57.582Z,52.60
2023-03-02T04:05:30.699Z,56.53
2023-03-02T04:08:02.184Z,57.90
2023-03-02T04:10:32.277Z,63.33
2023-03-02T04:13:02.856Z,55.07
2023-03-02T04:15:32.938Z,58.47
2023-03-02T04:18:02.431Z,53.23
2023-03-02T04:20:33.374Z,54.17
2023-03-02T04:23:02.230Z,55.17
2023-03-02T04:25:32.312Z,53.03
2023-03-02T04:28:08.286Z,60.03
2023-03-02T04:30:39.802Z,55.20
2023-03-02T04:33:09.029Z,57.87
2023-03-02T04:35:38.326Z,54.37
2023-03-02T04:38:07.169Z,57.80
2023-03-02T04:40:36.084Z,56.03
2023-03-02T04:43:04.886Z,57.27
2023-03-02T04:45:35.091Z,53.90
2023-03-02T04:48:03.899Z,54.57
2023-03-02T04:50:32.726Z,55.50
2023-03-02T04:53:01.537Z,55.80
2023-03-02T04:55:30.396Z,60.77
2023-03-02T04:57:59.256Z,60.33
2023-03-02T05:00:28.812Z,55.33
2023-03-02T05:02:59.031Z,57.80
2023-03-02T05:05:28.446Z,56.63
2023-03-02T05:07:58.539Z,53.37
2023-03-02T05:10:28.303Z,57.10
2023-03-02T05:13:02.249Z,57.23
2023-03-02T05:15:33.490Z,52.97
2023-03-02T05:18:04.787Z,48.83
2023-03-02T05:20:34.417Z,50.23
2023-03-02T05:23:08.923Z,46.07
2023-03-02T05:25:39.099Z,42.27
2023-03-02T05:28:08.026Z,42.47
2023-03-02T05:30:37.786Z,37.77
2023-03-02T05:33:08.289Z,40.37
2023-03-02T05:35:37.495Z,34.47
2023-03-02T05:38:06.322Z,33.93
2023-03-02T05:40:35.392Z,35.70
2023-03-02T05:43:04.271Z,38.40
2023-03-02T05:45:35.930Z,32.80
2023-03-02T05:48:05.747Z,34.73
2023-03-02T05:50:36.000Z,34.70
2023-03-02T05:53:05.047Z,34.97
2023-03-02T05:55:36.827Z,32.93
2023-03-02T05:58:06.935Z,29.83
2023-03-02T06:00:35.772Z,30.37
2023-03-02T06:03:04.908Z,31.03
2023-03-02T06:05:35.357Z,32.67
2023-03-02T06:08:05.019Z,31.10
2023-03-02T06:10:34.421Z,33.20
2023-03-02T06:13:03.220Z,30.50
2023-03-02T06:15:32.028Z,32.73
2023-03-02T06:18:00.815Z,33.37
2023-03-02T06:20:29.700Z,31.67
2023-03-02T06:22:59.863Z,34.50
2023-03-02T06:25:28.798Z,31.10
2023-03-02T06:27:57.533Z,32.03
2023-03-02T06:30:27.965Z,29.67
2023-03-02T06:32:56.712Z,30.83
2023-03-02T06:35:25.566Z,34.37
2023-03-02T06:37:54.396Z,32.47
2023-03-02T06:40:24.504Z,32.53
2023-03-02T06:42:53.237Z,34.70
2023-03-02T06:45:22.051Z,29.23
2023-03-02T06:47:50.772Z,31.77
2023-03-02T06:50:19.648Z,32.17
2023-03-02T06:52:48.380Z,31.10
2023-03-02T06:55:17.325Z,33.90
2023-03-02T06:57:47.533Z,33.37
2023-03-02T07:00:17.794Z,31.87
2023-03-02T07:02:46.775Z,31.13
2023-03-02T07:05:15.515Z,33.13
2023-03-02T07:07:44.550Z,34.00
2023-03-02T07:10:13.623Z,35.00
2023-03-02T07:12:42.773Z,33.93
2023-03-02T07:15:14.404Z,35.47
2023-03-02T07:17:44.926Z,36.30
2023-03-02T07:20:15.403Z,37.20
2023-03-02T07:22:45.515Z,35.10
2023-03-02T07:25:14.685Z,33.63
2023-03-02T07:27:43.675Z,30.63
2023-03-02T07:30:15.543Z,33.50
2023-03-02T07:32:44.260Z,31.07
2023-03-02T07:35:13.080Z,32.33
2023-03-02T07:37:41.948Z,32.00
2023-03-02T07:40:12.795Z,32.70
2023-03-02T07:42:41.900Z,29.17
2023-03-02T07:45:13.499Z,29.80
2023-03-02T07:47:42.230Z,27.80
2023-03-02T07:50:12.205Z,28.47
2023-03-02T07:52:40.966Z,28.87
2023-03-02T07:55:10.844Z,29.33
2023-03-02T07:57:39.643Z,29.10
2023-03-02T08:00:09.871Z,29.63
2023-03-02T08:02:43.635Z,32.57
2023-03-02T08:05:13.477Z,28.43
2023-03-02T08:07:42.695Z,31.27
2023-03-02T08:10:12.877Z,29.40
2023-03-02T08:12:42.929Z,31.17
2023-03-02T08:15:12.737Z,34.47
2023-03-02T08:17:42.848Z,30.37
2023-03-02T08:20:12.284Z,28.87
2023-03-02T08:22:41.006Z,27.67
2023-03-02T08:25:10.082Z,26.23
2023-03-02T08:27:40.264Z,28.03
2023-03-02T08:30:10.655Z,30.40
2023-03-02T08:32:39.596Z,26.20
2023-03-02T08:35:11.036Z,33.70
2023-03-02T08:37:39.865Z,27.33
2023-03-02T08:40:09.961Z,26.30
2023-03-02T08:42:38.753Z,25.40
2023-03-02T08:45:08.725Z,22.30
2023-03-02T08:47:37.645Z,22.67
2023-03-02T08:50:07.043Z,22.27
2023-03-02T08:52:37.137Z,20.03
2023-03-02T08:55:07.204Z,24.23
2023-03-02T08:57:36.110Z,24.03
2023-03-02T09:00:08.655Z,22.53
2023-03-02T09:02:37.407Z,20.90
2023-03-02T09:05:06.822Z,23.23
2023-03-02T09:07:37.181Z,23.73
2023-03-02T09:10:06.560Z,23.97
2023-03-02T09:12:35.497Z,22.33
2023-03-02T09:15:04.525Z,23.40
2023-03-02T09:17:33.205Z,22.20
2023-03-02T09:20:01.969Z,21.93
2023-03-02T09:22:31.232Z,21.40
2023-03-02T09:25:01.385Z,20.30
2023-03-02T09:27:30.338Z,20.00
2023-03-02T09:29:59.097Z,20.80
2023-03-02T09:32:28.014Z,19.53
2023-03-02T09:34:56.894Z,20.20
2023-03-02T09:37:26.000Z,20.70
2023-03-02T09:39:54.735Z,19.90
2023-03-02T09:43:02.660Z,21.33
2023-03-02T09:46:08.032Z,18.83
2023-03-02T09:48:41.726Z,20.63
2023-03-02T09:51:32.489Z,20.03
2023-03-02T09:54:10.419Z,18.73
2023-03-02T09:56:43.715Z,19.50
2023-03-02T09:59:24.042Z,19.33
2023-03-02T10:02:01.322Z,19.57
2023-03-02T10:04:32.709Z,19.40
2023-03-02T10:07:12.750Z,18.17
2023-03-02T10:09:42.573Z,17.03
2023-03-02T10:12:38.417Z,17.27
2023-03-02T10:15:15.505Z,18.27
2023-03-02T10:17:57.582Z,19.10
2023-03-02T10:20:34.075Z,17.93
2023-03-02T10:23:22.831Z,18.27
2023-03-02T10:25:55.346Z,17.87
2023-03-02T10:28:28.502Z,16.77
2023-03-02T10:31:08.018Z,17.50
2023-03-02T10:33:38.650Z,17.97
2023-03-02T10:36:20.636Z,17.03
2023-03-02T10:38:49.729Z,16.07
2023-03-02T10:41:24.049Z,17.23
2023-03-02T10:43:55.735Z,16.57
2023-03-02T10:46:26.151Z,16.93
2023-03-02T10:48:58.209Z,16.50
2023-03-02T10:51:29.341Z,15.43
2023-03-02T10:54:11.287Z,14.90
2023-03-02T10:56:42.744Z,15.57
2023-03-02T10:59:43.596Z,15.87
2023-03-02T11:02:23.193Z,15.57
2023-03-02T11:04:57.788Z,16.10
2023-03-02T11:07:28.240Z,16.47
2023-03-02T11:10:02.953Z,15.87
2023-03-02T11:12:33.202Z,16.57
2023-03-02T11:15:19.007Z,16.87
2023-03-02T11:17:53.729Z,15.37
2023-03-02T11:20:26.410Z,15.70
2023-03-02T11:23:14.314Z,16.47
2023-03-02T11:25:48.698Z,14.80
2023-03-02T11:28:31.857Z,14.10
2023-03-02T11:31:03.816Z,13.73
2023-03-02T11:33:40.426Z,13.60
2023-03-02T11:36:17.109Z,14.43
2023-03-02T11:38:49.914Z,13.63
2023-03-02T11:41:29.912Z,13.17
2023-03-02T11:44:02.453Z,13.70
2023-03-02T11:46:33.767Z,14.90
2023-03-02T11:49:08.311Z,14.40
2023-03-02T11:51:47.128Z,14.17
2023-03-02T11:54:34.002Z,15.90
2023-03-02T11:57:02.824Z,16.80
2023-03-02T11:59:32.976Z,17.03
2023-03-02T12:02:02.764Z,16.37
2023-03-02T12:04:35.916Z,14.50
2023-03-02T12:07:18.032Z,15.03
2023-03-02T12:09:58.605Z,17.07
2023-03-02T12:12:37.258Z,16.73
2023-03-02T12:15:35.253Z,17.87
2023-03-02T12:18:04.170Z,17.20
2023-03-02T12:20:34.354Z,18.23
2023-03-02T12:23:24.277Z,17.70
2023-03-02T12:26:05.876Z,19.50
2023-03-02T12:28:37.771Z,20.40
2023-03-02T12:31:13.127Z,20.87
2023-03-02T12:33:50.334Z,20.90
2023-03-02T12:36:28.560Z,20.90
2023-03-02T12:39:26.807Z,21.50
2023-03-02T12:42:21.761Z,19.43
2023-03-02T12:44:58.307Z,16.87
2023-03-02T12:47:30.261Z,18.10
2023-03-02T12:50:03.189Z,23.83
2023-03-02T12:52:35.332Z,26.33
2023-03-02T12:55:07.535Z,24.43
2023-03-02T12:57:40.249Z,19.53
2023-03-02T13:00:17.724Z,18.63
2023-03-02T13:02:49.162Z,16.70
2023-03-02T13:05:21.244Z,15.10
2023-03-02T13:07:59.642Z,13.87
2023-03-02T13:10:37.177Z,13.50
2023-03-02T13:13:19.424Z,14.03
2023-03-02T13:15:52.955Z,13.70
2023-03-02T13:18:22.696Z,12.90
2023-03-02T13:20:52.670Z,14.07
2023-03-02T13:23:23.093Z,13.93
2023-03-02T13:25:53.344Z,14.27
2023-03-02T13:28:29.921Z,14.40
2023-03-02T13:31:00.994Z,14.40
2023-03-02T13:33:31.624Z,14.67
2023-03-02T13:36:01.280Z,14.57
2023-03-02T13:38:36.929Z,16.60
2023-03-02T13:41:05.952Z,15.73
2023-03-02T13:43:40.071Z,15.77
2023-03-02T13:46:28.746Z,16.43
2023-03-02T13:49:14.480Z,16.53
2023-03-02T13:51:46.340Z,15.77
2023-03-02T13:54:22.201Z,16.10
2023-03-02T13:56:52.277Z,16.03
2023-03-02T13:59:22.689Z,16.73
2023-03-02T14:01:51.740Z,16.97
2023-03-02T14:04:23.438Z,16.53
2023-03-02T14:06:53.266Z,16.17
2023-03-02T14:09:23.442Z,16.13
2023-03-02T14:11:54.307Z,17.53
2023-03-02T14:14:26.072Z,16.67
2023-03-02T14:16:54.821Z,15.63
2023-03-02T14:19:23.672Z,14.90
2023-03-02T14:21:52.453Z,14.17
2023-03-02T14:24:22.743Z,14.73
2023-03-02T14:26:51.613Z,13.63
2023-03-02T14:29:26.112Z,13.20
2023-03-02T14:31:55.634Z,13.33
2023-03-02T14:34:24.753Z,14.87
2023-03-02T14:36:55.637Z,14.80
2023-03-02T14:39:33.237Z,15.27
2023-03-02T14:42:02.096Z,13.83
2023-03-02T14:44:31.213Z,13.87
2023-03-02T14:47:00.043Z,13.80
2023-03-02T14:49:28.937Z,14.63
2023-03-02T14:52:02.143Z,14.53
2023-03-02T14:54:39.439Z,14.27
2023-03-02T14:57:18.073Z,15.47
2023-03-02T14:59:46.909Z,14.17
2023-03-02T15:02:25.209Z,14.03
2023-03-02T15:04:57.248Z,13.53
2023-03-02T15:07:27.561Z,13.30
2023-03-02T15:09:58.669Z,13.60
2023-03-02T15:12:27.644Z,15.20
2023-03-02T15:14:56.427Z,13.53
2023-03-02T15:17:25.170Z,12.67
2023-03-02T15:19:54.162Z,12.60
2023-03-02T15:22:23.030Z,13.20
2023-03-02T15:24:51.844Z,13.57
2023-03-02T15:27:23.090Z,12.57
2023-03-02T15:29:52.145Z,12.03
2023-03-02T15:32:21.007Z,13.93
2023-03-02T15:34:49.866Z,14.33
2023-03-02T15:37:18.661Z,13.70
2023-03-02T15:39:47.482Z,14.37
2023-03-02T15:42:16.201Z,13.43
2023-03-02T15:44:46.409Z,12.77
2023-03-02T15:47:15.396Z,13.23
2023-03-02T15:49:44.270Z,14.53
2023-03-02T15:52:13.525Z,13.43
2023-03-02T15:54:42.358Z,13.90
2023-03-02T15:57:11.561Z,13.10
2023-03-02T15:59:40.276Z,14.13
2023-03-02T16:02:11.486Z,14.47
2023-03-02T16:04:40.342Z,15.83
2023-03-02T16:07:09.068Z,15.97
2023-03-02T16:09:37.832Z,16.47
2023-03-02T16:12:07.233Z,14.60
2023-03-02T16:14:35.962Z,15.30
2023-03-02T16:17:04.811Z,15.80
2023-03-02T16:19:35.014Z,15.47
2023-03-02T16:22:03.760Z,14.57
2023-03-02T16:24:32.543Z,15.37
2023-03-02T16:27:01.275Z,15.20
2023-03-02T16:29:31.084Z,15.80
2023-03-02T16:31:59.931Z,16.90
2023-03-02T16:34:28.888Z,20.97
2023-03-02T16:36:58.996Z,17.60
2023-03-02T16:39:27.889Z,15.57
2023-03-02T16:41:56.638Z,15.00
2023-03-02T16:44:25.758Z,16.00
2023-03-02T16:46:57.005Z,16.00
2023-03-02T16:49:26.056Z,16.20
2023-03-02T16:51:59.607Z,15.90
2023-03-02T16:54:28.921Z,15.23
2023-03-02T16:56:57.647Z,14.57
2023-03-02T16:59:26.365Z,14.33
2023-03-02T17:01:55.205Z,15.37
2023-03-02T17:04:24.028Z,15.90
2023-03-02T17:07:01.176Z,15.10
2023-03-02T17:09:33.222Z,15.47
2023-03-02T17:12:02.278Z,15.27
2023-03-02T17:14:31.046Z,17.33
2023-03-02T17:16:59.835Z,15.93
2023-03-02T17:19:29.739Z,15.47
2023-03-02T17:21:59.432Z,15.93
2023-03-02T17:24:28.787Z,16.03
2023-03-02T17:26:59.322Z,15.93
2023-03-02T17:29:28.276Z,16.03
2023-03-02T17:31:57.302Z,15.13
2023-03-02T17:34:30.581Z,15.47
2023-03-02T17:37:00.614Z,15.30
2023-03-02T17:39:29.855Z,15.33
2023-03-02T17:42:00.032Z,15.20
2023-03-02T17:44:28.928Z,15.87
2023-03-02T17:46:57.758Z,14.63
2023-03-02T17:49:26.693Z,14.77
2023-03-02T17:51:55.776Z,14.23
2023-03-02T17:54:24.646Z,14.93
2023-03-02T17:56:53.475Z,14.57
2023-03-02T17:59:23.830Z,13.70
2023-03-02T18:01:52.676Z,14.37
2023-03-02T18:04:21.544Z,14.57
2023-03-02T18:06:51.916Z,14.67
2023-03-02T18:09:21.921Z,15.07
2023-03-02T18:11:50.700Z,14.33
2023-03-02T18:14:21.562Z,16.13
2023-03-02T18:16:51.806Z,15.30
2023-03-02T18:19:20.714Z,16.07
2023-03-02T18:21:49.645Z,16.20
2023-03-02T18:24:18.554Z,15.63
2023-03-02T18:26:47.317Z,15.37
2023-03-02T18:29:16.381Z,15.63
2023-03-02T18:31:45.947Z,15.67
2023-03-02T18:34:16.503Z,16.07
2023-03-02T18:36:45.551Z,16.63
2023-03-02T18:39:14.629Z,19.33
2023-03-02T18:41:43.762Z,19.10
2023-03-02T18:44:13.000Z,17.67
2023-03-02T18:46:41.906Z,19.83
2023-03-02T18:49:10.660Z,16.33
2023-03-02T18:51:40.822Z,15.57
2023-03-02T18:54:09.706Z,17.13
2023-03-02T18:56:40.532Z,16.50
2023-03-02T18:59:09.889Z,16.57
2023-03-02T19:01:38.672Z,17.63
2023-03-02T19:04:08.044Z,16.37
2023-03-02T19:06:36.765Z,17.63
2023-03-02T19:09:06.930Z,20.87
2023-03-02T19:11:35.919Z,21.33
2023-03-02T19:14:04.676Z,22.03
2023-03-02T19:16:33.623Z,23.73
2023-03-02T19:19:02.414Z,25.00
2023-03-02T19:21:31.169Z,25.87
2023-03-02T19:24:01.661Z,21.57
2023-03-02T19:26:32.258Z,18.67
2023-03-02T19:29:01.364Z,20.43
2023-03-02T19:31:31.295Z,19.40
2023-03-02T19:34:00.768Z,20.23
2023-03-02T19:36:29.571Z,19.00
2023-03-02T19:38:58.293Z,18.60
2023-03-02T19:41:27.181Z,20.07
2023-03-02T19:43:57.377Z,18.80
2023-03-02T19:46:26.190Z,19.13
2023-03-02T19:48:55.042Z,19.07
2023-03-02T19:51:23.750Z,19.03
2023-03-02T19:53:52.941Z,18.63
2023-03-02T19:56:22.705Z,18.70
2023-03-02T19:58:54.007Z,19.73
2023-03-02T20:01:27.841Z,19.37
2023-03-02T20:03:57.860Z,24.53
2023-03-02T20:06:31.208Z,25.93
2023-03-02T20:09:02.478Z,19.33
2023-03-02T20:11:32.236Z,20.17
2023-03-02T20:14:02.192Z,21.40
2023-03-02T20:16:35.669Z,18.83
2023-03-02T20:19:05.497Z,18.67
2023-03-02T20:21:35.970Z,20.20
2023-03-02T20:24:05.561Z,17.43
2023-03-02T20:26:34.459Z,18.17
2023-03-02T20:29:05.369Z,19.10
2023-03-02T20:31:36.723Z,19.10
2023-03-02T20:34:08.490Z,19.73
2023-03-02T20:36:38.528Z,20.23
2023-03-02T20:39:11.798Z,19.63
2023-03-02T20:41:41.064Z,19.73
2023-03-02T20:44:11.518Z,19.87
2023-03-02T20:46:47.272Z,19.40
2023-03-02T20:49:16.911Z,19.33
2023-03-02T20:51:52.703Z,20.57
2023-03-02T20:54:22.752Z,20.20
2023-03-02T20:56:52.228Z,19.73
2023-03-02T20:59:22.309Z,21.73
2023-03-02T21:01:53.391Z,20.47
2023-03-02T21:04:23.866Z,21.63
2023-03-02T21:06:53.204Z,21.13
2023-03-02T21:09:22.125Z,20.97
2023-03-02T21:11:51.142Z,21.60
2023-03-02T21:14:20.393Z,20.67
2023-03-02T21:16:49.208Z,21.07
2023-03-02T21:19:20.433Z,19.60
2023-03-02T21:21:49.441Z,25.40
2023-03-02T21:24:18.296Z,21.33
2023-03-02T21:26:48.707Z,22.77
2023-03-02T21:29:20.937Z,19.33
2023-03-02T21:31:50.244Z,20.23
2023-03-02T21:34:22.330Z,20.00
2023-03-02T21:36:53.784Z,20.53
2023-03-02T21:39:23.635Z,20.73
2023-03-02T21:41:53.384Z,19.87
2023-03-02T21:44:22.237Z,20.87
2023-03-02T21:46:52.025Z,20.40
2023-03-02T21:49:23.993Z,21.93
2023-03-02T21:51:52.907Z,22.40
2023-03-02T21:54:22.018Z,23.67
2023-03-02T21:56:50.985Z,22.20
2023-03-02T21:59:19.780Z,23.20
2023-03-02T22:01:48.602Z,23.20
2023-03-02T22:04:17.542Z,24.20
2023-03-02T22:06:47.718Z,26.77
2023-03-02T22:09:16.656Z,25.97
2023-03-02T22:11:46.480Z,25.93
2023-03-02T22:14:17.828Z,25.83
2023-03-02T22:16:48.313Z,27.13
2023-03-02T22:19:26.992Z,26.77
2023-03-02T22:21:59.922Z,26.07
2023-03-02T22:24:30.036Z,28.43
2023-03-02T22:27:01.368Z,29.50
2023-03-02T22:29:33.137Z,28.80
2023-03-02T22:32:15.792Z,28.23
2023-03-02T22:34:46.307Z,29.93
2023-03-02T22:37:19.030Z,31.73
2023-03-02T22:39:49.173Z,29.30
2023-03-02T22:42:19.771Z,27.70
2023-03-02T22:44:56.554Z,27.00
2023-03-02T22:47:25.775Z,25.80
2023-03-02T22:49:58.893Z,30.07
2023-03-02T22:52:39.261Z,30.43
2023-03-02T22:55:31.570Z,31.13
2023-03-02T22:58:24.879Z,28.20
2023-03-02T23:00:53.903Z,31.23
2023-03-02T23:03:24.832Z,31.27
2023-03-02T23:05:55.279Z,29.57
2023-03-02T23:08:28.348Z,31.70
2023-03-02T23:10:58.938Z,30.53
2023-03-02T23:13:37.659Z,30.80
2023-03-02T23:16:16.327Z,31.63
2023-03-02T23:18:45.325Z,28.73
2023-03-02T23:21:18.488Z,30.13
2023-03-02T23:23:49.758Z,28.70
2023-03-02T23:26:19.891Z,29.20
2023-03-02T23:28:50.330Z,30.53
2023-03-02T23:31:19.560Z,32.47
2023-03-02T23:33:48.784Z,33.20
2023-03-02T23:36:17.768Z,29.67
2023-03-02T23:38:46.556Z,29.97
2023-03-02T23:41:17.318Z,31.17
2023-03-02T23:43:46.283Z,31.33
2023-03-02T23:46:15.215Z,32.47
2023-03-02T23:48:44.522Z,33.30
2023-03-02T23:51:13.354Z,31.10
2023-03-02T23:53:42.274Z,30.57
2023-03-02T23:56:11.388Z,33.43
2023-03-02T23:58:42.082Z,32.87
